Impacts TAF Board INFO
FOR SITUATIONAL AWARENESS. NOT TO BE USED FOR FLIGHT PLANNING PURPOSES.
IDs:

KSEA - Seattle-Tacoma Intl, WA, US

Issued at 2320 UTC 17 Jan 2017
Updated at 2327 UTC 17 Jan 2017
Potential Impact None Slight Moderate High
Time2253Z 18/00Z 18/01Z 18/02Z 18/03Z 18/04Z 18/05Z 18/06Z 18/07Z 18/08Z 18/09Z 18/10Z 18/11Z 18/12Z
Type OBS PRVL
  [TEMP]  
PRVL
  [TEMP]  
PRVL
  [TEMP]  
PRVL
  [TEMP]  
PRVL PRVL PRVL PRVL PRVL PRVL PRVL PRVL PRVL
VIS 3 4
  [2]  
4
  [2]  
4
  [2]  
4
  [2]  
2 2 2 2 2 2 2 2 2
CIG 49 40
  [20]  
40
  [20]  
40
  [20]  
40
  [20]  
15 15 15 15 15 15 15 15 15
Cover OVC OVC
  [OVC]  
OVC
  [OVC]  
OVC
  [OVC]  
OVC
  [OVC]  
OVC OVC OVC OVC OVC OVC OVC OVC OVC
FltCat MVFR MVFR
  [IFR]  
MVFR
  [IFR]  
MVFR
  [IFR]  
MVFR
  [IFR]  
IFR IFR IFR IFR IFR IFR IFR IFR IFR
WX RA BR RA BR
  [RA BR]  
RA BR
  [RA BR]  
RA BR
  [RA BR]  
RA BR
  [RA BR]  
RA BR RA BR RA BR RA BR RA BR RA BR RA BR RA BR RA BR
WDir 100 140
[140]
140
[140]
140
[140]
140
[140]
160 160 160 160 160 160 160 160 160
WSpd 9 12
  [12]  
12
  [12]  
12
  [12]  
12
  [12]  
12 12 12 12 12 12 12 12 12
WGst -- --
  [--]  
--
  [--]  
--
  [--]  
--
  [--]  
20 20 20 20 20 20 20 20 20

Raw TAF
KSEA 172320Z 1800/1906 14012KT 4SM RA BR OVC040
  TEMPO 1800/1804 2SM RA BR OVC020
  FM180400 16012G20KT 2SM RA BR OVC015
  FM181600 18012KT P6SM -RA BKN020 OVC040
  FM182200 20012KT P6SM -SHRA BKN025 BKN050


Raw METAR
KSEA 172253Z 10009KT 3SM RA BR OVC049 06/05 A2959 RMK AO2 SLP027 P0017 T00610050
KSEA 172153Z VRB05KT 3SM RA BR SCT023 OVC036 07/05 A2967 RMK AO2 RAE21B42 SLP054 P0005 T00670050
KSEA 172053Z 11005KT 7SM -RA SCT044 BKN055 OVC070 07/04 A2972 RMK AO2 SLP070 P0007 60008 T00720039 58015

METAR Board
Radar Display
Forecast Discussion

FOR SITUATIONAL AWARENESS. NOT TO BE USED FOR FLIGHT PLANNING PURPOSES.

Page loaded:  23:27 UTC  |   03:27 PM Pacific  |   04:27 PM Mountain  |   05:27 PM Central  |   06:27 PM Eastern

 

ADVISORIES

FORECASTS

FORECASTS

OBSERVATIONS

USER TOOLS

ABOUT US